Time;durP1;ratioP1;P1;durP2;ratioP2;P2;SDS_P1;SDS_P2;PMS_P1;PMS_P2;Temp;Humidity;BMP_temperature;BMP_pressure;BME280_temperature;BME280_humidity;BME280_pressure;Samples;Min_cycle;Max_cycle;Signal;HPM_P1;HPM_P2
2022/04/15 00:02:18;;;;;;;55.63;29.23;;;9.20;99.90;;;;;;5042654;28;20412;-63
2022/04/15 00:04:47;;;;;;;50.37;28.63;;;9.20;99.90;;;;;;5042962;28;20263;-63
2022/04/15 00:07:15;;;;;;;54.37;30.33;;;9.10;99.90;;;;;;5040932;28;20707;-63
2022/04/15 00:09:44;;;;;;;49.63;28.47;;;9.10;99.90;;;;;;5040426;28;20639;-63
2022/04/15 00:12:17;;;;;;;52.80;29.07;;;9.00;99.90;;;;;;5044882;28;20820;-63
2022/04/15 00:14:49;;;;;;;52.23;29.57;;;9.00;99.90;;;;;;5043765;28;20225;-63
2022/04/15 00:17:18;;;;;;;61.57;31.27;;;9.00;99.90;;;;;;5039517;28;20232;-63
2022/04/15 00:19:47;;;;;;;54.23;30.40;;;8.90;99.90;;;;;;5045216;28;20203;-63
2022/04/15 00:22:16;;;;;;;66.30;33.10;;;8.90;99.90;;;;;;5046466;28;20207;-63
2022/04/15 00:24:44;;;;;;;61.17;32.50;;;8.90;99.90;;;;;;5043086;28;20250;-63
2022/04/15 00:27:15;;;;;;;58.80;32.37;;;8.90;99.90;;;;;;5043750;28;20211;-63
2022/04/15 00:29:43;;;;;;;65.90;33.77;;;8.80;99.90;;;;;;5041493;28;20227;-63
2022/04/15 00:32:11;;;;;;;64.17;33.13;;;8.80;99.90;;;;;;5043956;28;20311;-63
2022/04/15 00:34:41;;;;;;;65.57;34.33;;;8.80;99.90;;;;;;5039690;28;20234;-63
2022/04/15 00:37:10;;;;;;;61.30;33.57;;;8.80;99.90;;;;;;5070887;28;20563;-63
2022/04/15 00:39:45;;;;;;;58.77;32.30;;;8.80;99.90;;;;;;5078060;28;20227;-63
2022/04/15 00:42:16;;;;;;;60.67;32.77;;;8.80;99.90;;;;;;5046911;28;20224;-63
2022/04/15 00:44:44;;;;;;;65.40;32.60;;;8.80;99.90;;;;;;5049112;28;20211;-63
2022/04/15 00:47:20;;;;;;;61.70;34.43;;;8.70;99.90;;;;;;5046352;28;20654;-63
2022/04/15 00:49:49;;;;;;;69.60;34.30;;;8.70;99.90;;;;;;5048692;28;20208;-63
2022/04/15 00:52:21;;;;;;;67.67;35.47;;;8.60;99.90;;;;;;5047533;28;20654;-63
2022/04/15 00:54:52;;;;;;;68.23;35.33;;;8.60;99.90;;;;;;5046897;28;21001;-63
2022/04/15 00:57:26;;;;;;;63.70;34.27;;;8.60;99.90;;;;;;5044797;28;20224;-63
2022/04/15 00:59:55;;;;;;;62.53;35.17;;;8.60;99.90;;;;;;5043369;28;20221;-63
2022/04/15 01:02:27;;;;;;;67.27;34.93;;;8.60;99.90;;;;;;5046787;28;20226;-63
2022/04/15 01:04:57;;;;;;;67.33;35.20;;;8.60;99.90;;;;;;5046259;28;20681;-63
2022/04/15 01:07:27;;;;;;;67.67;35.20;;;8.50;99.90;;;;;;5047776;28;20218;-63
2022/04/15 01:09:56;;;;;;;71.67;36.83;;;8.50;99.90;;;;;;5044540;28;20209;-63
2022/04/15 01:12:29;;;;;;;70.60;36.80;;;8.50;99.90;;;;;;5046704;28;20283;-63
2022/04/15 01:15:01;;;;;;;86.10;41.60;;;8.50;99.90;;;;;;5047395;28;20208;-63
2022/04/15 01:17:30;;;;;;;82.50;40.63;;;8.40;99.90;;;;;;5044618;28;20204;-63
2022/04/15 01:20:00;;;;;;;75.80;39.23;;;8.50;99.90;;;;;;5044498;28;20225;-63
2022/04/15 01:22:33;;;;;;;81.17;38.40;;;8.50;99.90;;;;;;5047553;28;20258;-63
2022/04/15 01:25:03;;;;;;;80.87;39.67;;;8.40;99.90;;;;;;5040034;28;20186;-63
2022/04/15 01:27:35;;;;;;;81.60;41.17;;;8.40;99.90;;;;;;5043575;28;20274;-63
2022/04/15 01:30:04;;;;;;;72.77;38.03;;;8.40;99.90;;;;;;5044211;28;20221;-63
2022/04/15 01:32:32;;;;;;;69.10;37.93;;;8.40;99.90;;;;;;5046821;28;20240;-63
2022/04/15 01:35:01;;;;;;;70.63;35.57;;;8.30;99.90;;;;;;5045454;28;20394;-63
2022/04/15 01:37:31;;;;;;;67.53;35.37;;;8.30;99.90;;;;;;5044057;28;20240;-63
2022/04/15 01:40:02;;;;;;;71.80;37.33;;;8.20;99.90;;;;;;5045995;28;20189;-63
2022/04/15 01:42:30;;;;;;;67.17;34.10;;;8.20;99.90;;;;;;5047886;28;20197;-63
2022/04/15 01:44:59;;;;;;;58.93;33.77;;;8.10;99.90;;;;;;5047979;28;20512;-63
2022/04/15 01:47:27;;;;;;;67.63;34.50;;;8.10;99.90;;;;;;5046941;28;20589;-63
2022/04/15 01:49:56;;;;;;;74.60;37.07;;;8.00;99.90;;;;;;5043241;28;20225;-63
2022/04/15 01:52:26;;;;;;;66.93;36.17;;;7.90;99.90;;;;;;5045758;28;20204;-64
2022/04/15 01:54:56;;;;;;;71.77;37.57;;;7.90;99.90;;;;;;5077608;28;20189;-63
2022/04/15 01:57:26;;;;;;;69.47;37.23;;;7.90;99.90;;;;;;5046256;28;20236;-63
2022/04/15 01:59:55;;;;;;;70.13;37.57;;;7.80;99.90;;;;;;5047792;28;20220;-63
2022/04/15 02:02:23;;;;;;;75.83;38.97;;;7.80;99.90;;;;;;5044008;28;20197;-63
2022/04/15 02:04:53;;;;;;;72.60;38.30;;;7.80;99.90;;;;;;5045149;28;20396;-63
2022/04/15 02:07:22;;;;;;;76.03;39.67;;;7.80;99.90;;;;;;5041894;28;20226;-63
2022/04/15 02:09:50;;;;;;;80.77;39.57;;;7.80;99.90;;;;;;5044858;28;20229;-63
2022/04/15 02:12:19;;;;;;;80.80;40.47;;;7.80;99.90;;;;;;5044775;28;20288;-63
2022/04/15 02:14:52;;;;;;;75.70;37.97;;;7.80;99.90;;;;;;5047495;28;20347;-63
2022/04/15 02:17:21;;;;;;;73.90;39.33;;;7.70;99.90;;;;;;5037671;28;20193;-63
2022/04/15 02:19:50;;;;;;;74.20;38.73;;;7.70;99.90;;;;;;5037682;28;20193;-63
2022/04/15 02:22:19;;;;;;;74.07;38.00;;;7.70;99.90;;;;;;5043266;28;20230;-63
2022/04/15 02:24:47;;;;;;;76.23;39.73;;;7.60;99.90;;;;;;5043877;28;20204;-63
2022/04/15 02:27:16;;;;;;;67.43;37.07;;;7.60;99.90;;;;;;5041303;28;20338;-63
2022/04/15 02:29:44;;;;;;;75.30;38.60;;;7.60;99.90;;;;;;5045314;28;20287;-63
2022/04/15 02:32:14;;;;;;;74.83;37.60;;;7.50;99.90;;;;;;5042384;28;20224;-63
2022/04/15 02:34:42;;;;;;;69.23;36.00;;;7.50;99.90;;;;;;5046905;28;20275;-63
2022/04/15 02:37:11;;;;;;;66.00;36.13;;;7.40;99.90;;;;;;5043825;28;20335;-63
2022/04/15 02:39:39;;;;;;;62.00;34.87;;;7.40;99.90;;;;;;5044861;28;20204;-63
2022/04/15 02:42:08;;;;;;;51.73;30.90;;;7.30;99.90;;;;;;5044728;28;20200;-63
2022/04/15 02:44:38;;;;;;;52.47;32.50;;;7.30;99.90;;;;;;5045303;28;20275;-63
2022/04/15 02:47:08;;;;;;;56.50;32.60;;;7.30;99.90;;;;;;5044884;28;20197;-63
2022/04/15 02:49:39;;;;;;;58.23;34.63;;;7.30;99.90;;;;;;5047555;28;20185;-64
2022/04/15 02:52:07;;;;;;;57.83;33.77;;;7.20;99.90;;;;;;5042681;28;20225;-63
2022/04/15 02:54:36;;;;;;;58.27;35.03;;;7.30;99.90;;;;;;5041742;28;20197;-63
2022/04/15 02:57:05;;;;;;;64.33;35.33;;;7.30;99.90;;;;;;5041725;28;20196;-63
2022/04/15 02:59:33;;;;;;;66.20;35.87;;;7.40;99.90;;;;;;5045094;28;20219;-63
2022/04/15 03:02:01;;;;;;;67.60;36.90;;;7.40;99.90;;;;;;5041154;28;20254;-63
2022/04/15 03:04:30;;;;;;;71.20;38.47;;;7.40;99.90;;;;;;5044086;28;20259;-63
2022/04/15 03:07:00;;;;;;;102.47;44.90;;;7.50;99.90;;;;;;5038948;28;20200;-63
2022/04/15 03:09:28;;;;;;;142.30;50.17;;;7.50;99.90;;;;;;5046162;28;20212;-63
2022/04/15 03:11:57;;;;;;;134.03;50.13;;;7.60;99.90;;;;;;5040510;28;20223;-63
2022/04/15 03:14:25;;;;;;;140.80;49.70;;;7.70;99.90;;;;;;5041623;28;20189;-63
2022/04/15 03:16:53;;;;;;;233.27;56.00;;;7.70;99.90;;;;;;5024895;28;20621;-63
2022/04/15 03:19:22;;;;;;;135.53;53.43;;;7.80;99.90;;;;;;5045551;28;20428;-63
2022/04/15 03:21:50;;;;;;;129.37;50.80;;;7.80;99.90;;;;;;5041379;28;21633;-63
2022/04/15 03:24:20;;;;;;;133.37;52.67;;;7.80;99.90;;;;;;5043275;28;20282;-63
2022/04/15 03:26:49;;;;;;;172.43;54.00;;;7.90;99.90;;;;;;5039784;28;20243;-63
2022/04/15 03:29:17;;;;;;;173.20;55.63;;;7.90;99.90;;;;;;5041980;28;20207;-64
2022/04/15 03:31:46;;;;;;;197.97;59.03;;;7.90;99.90;;;;;;5044180;28;20484;-64
2022/04/15 03:34:14;;;;;;;231.60;59.33;;;8.00;99.90;;;;;;5044491;28;20196;-64
2022/04/15 03:36:43;;;;;;;171.97;55.20;;;7.90;99.90;;;;;;5040652;28;20330;-64
2022/04/15 03:39:11;;;;;;;216.53;59.60;;;8.00;99.90;;;;;;5037927;28;20207;-64
2022/04/15 03:41:41;;;;;;;190.57;57.77;;;8.00;99.90;;;;;;5042662;28;20192;-64
2022/04/15 03:44:10;;;;;;;227.57;61.50;;;8.00;99.90;;;;;;5041360;28;20212;-64
2022/04/15 03:46:40;;;;;;;220.87;58.60;;;8.10;99.90;;;;;;5041143;28;20200;-64
2022/04/15 03:49:08;;;;;;;269.33;63.33;;;8.10;99.90;;;;;;5042086;28;20208;-63
2022/04/15 03:51:37;;;;;;;252.43;61.27;;;8.20;99.90;;;;;;5044744;28;20227;-64
2022/04/15 03:54:05;;;;;;;259.57;58.60;;;8.10;99.90;;;;;;5045171;28;20196;-64
2022/04/15 03:56:34;;;;;;;209.10;58.20;;;8.10;99.90;;;;;;5042787;28;20358;-64
2022/04/15 03:59:04;;;;;;;218.60;57.47;;;8.10;99.90;;;;;;5042382;28;20196;-64
2022/04/15 04:01:33;;;;;;;192.17;56.63;;;8.10;99.90;;;;;;5037014;28;20189;-64
2022/04/15 04:04:01;;;;;;;198.23;56.57;;;8.10;99.90;;;;;;5040609;28;20193;-63
2022/04/15 04:06:30;;;;;;;180.60;57.30;;;8.00;99.90;;;;;;5026162;28;20206;-64
2022/04/15 04:08:58;;;;;;;192.53;59.47;;;8.00;99.90;;;;;;5040559;28;20205;-64
2022/04/15 04:11:26;;;;;;;192.10;58.87;;;8.00;99.90;;;;;;5040746;28;20559;-64
2022/04/15 04:13:55;;;;;;;148.13;55.57;;;8.00;99.90;;;;;;5044485;28;20200;-64
2022/04/15 04:16:25;;;;;;;206.73;57.40;;;8.00;99.90;;;;;;5043240;28;20268;-64
2022/04/15 04:18:53;;;;;;;149.60;57.13;;;7.90;99.90;;;;;;5044316;28;20232;-64
2022/04/15 04:21:22;;;;;;;176.03;54.97;;;7.90;99.90;;;;;;5045916;28;20226;-64
2022/04/15 04:23:51;;;;;;;225.57;56.07;;;7.90;99.90;;;;;;5047178;28;20694;-64
2022/04/15 04:26:19;;;;;;;169.27;54.90;;;7.90;99.90;;;;;;5045532;28;20204;-63
2022/04/15 04:28:48;;;;;;;161.23;56.87;;;7.90;99.90;;;;;;5046512;28;20196;-64
2022/04/15 04:31:17;;;;;;;149.60;55.57;;;7.90;99.90;;;;;;5028504;28;20212;-64
2022/04/15 04:33:47;;;;;;;172.90;54.97;;;7.90;99.90;;;;;;5045686;28;20279;-64
2022/04/15 04:36:15;;;;;;;158.43;53.37;;;7.80;99.90;;;;;;5030169;28;20276;-64
2022/04/15 04:38:44;;;;;;;166.47;54.63;;;7.80;99.90;;;;;;5034877;28;20201;-64
2022/04/15 04:41:12;;;;;;;130.33;52.67;;;7.80;99.90;;;;;;5048785;28;20189;-64
2022/04/15 04:43:40;;;;;;;136.50;52.10;;;7.70;99.90;;;;;;5045586;28;20305;-64
2022/04/15 04:46:09;;;;;;;117.57;49.60;;;7.70;99.90;;;;;;5047051;28;20585;-64
2022/04/15 04:48:38;;;;;;;124.27;49.17;;;7.70;99.90;;;;;;5046249;28;20562;-63
2022/04/15 04:51:07;;;;;;;112.53;49.50;;;7.70;99.90;;;;;;5046555;28;20532;-65
2022/04/15 04:53:36;;;;;;;117.20;49.07;;;7.60;99.90;;;;;;5047596;28;20188;-65
2022/04/15 04:56:04;;;;;;;124.27;49.20;;;7.60;99.90;;;;;;5045705;28;20225;-65
2022/04/15 04:58:32;;;;;;;119.57;50.23;;;7.50;99.90;;;;;;5043020;28;20266;-64
2022/04/15 05:01:01;;;;;;;119.27;50.47;;;7.50;99.90;;;;;;5044444;28;20613;-64
2022/04/15 05:03:30;;;;;;;111.47;50.20;;;7.50;99.90;;;;;;5043321;28;20589;-64
2022/04/15 05:05:58;;;;;;;146.57;58.50;;;7.50;99.90;;;;;;5043817;28;20646;-64
2022/04/15 05:08:28;;;;;;;137.03;66.93;;;7.50;99.90;;;;;;5039467;28;20600;-65
2022/04/15 05:10:57;;;;;;;139.67;61.63;;;7.50;99.90;;;;;;5042942;28;20643;-65
2022/04/15 05:13:25;;;;;;;129.37;55.97;;;7.50;99.90;;;;;;5041404;28;20236;-65
2022/04/15 05:15:53;;;;;;;137.60;57.63;;;7.50;99.90;;;;;;5046251;28;20689;-65
2022/04/15 05:18:22;;;;;;;186.47;70.87;;;7.50;99.90;;;;;;5041865;28;20196;-65
2022/04/15 05:20:50;;;;;;;138.23;63.50;;;7.50;99.90;;;;;;5045565;28;20661;-65
2022/04/15 05:23:19;;;;;;;132.03;56.83;;;7.60;99.90;;;;;;5041731;28;20667;-64
2022/04/15 05:25:49;;;;;;;121.90;55.87;;;7.60;99.90;;;;;;5047880;28;20773;-65
2022/04/15 05:28:18;;;;;;;115.87;52.27;;;7.60;99.90;;;;;;5043321;28;20197;-64
2022/04/15 05:30:49;;;;;;;104.90;48.77;;;7.60;99.90;;;;;;5044932;28;20536;-64
2022/04/15 05:33:17;;;;;;;122.63;53.30;;;7.60;99.90;;;;;;5047111;28;20240;-65
2022/04/15 05:35:45;;;;;;;117.93;52.50;;;7.60;99.90;;;;;;5044157;28;20227;-65
2022/04/15 05:38:14;;;;;;;114.20;48.40;;;7.70;99.90;;;;;;5044021;28;20283;-65
2022/04/15 05:40:42;;;;;;;119.80;45.73;;;7.70;99.90;;;;;;5045550;28;20633;-65
2022/04/15 05:43:12;;;;;;;136.37;49.20;;;7.70;99.90;;;;;;5044984;28;20192;-65
2022/04/15 05:45:40;;;;;;;126.57;47.53;;;7.70;99.90;;;;;;5044276;28;20266;-63
2022/04/15 05:48:09;;;;;;;116.03;46.13;;;7.70;99.90;;;;;;5042636;28;20722;-63
2022/04/15 05:50:37;;;;;;;100.00;41.23;;;7.70;99.90;;;;;;5045280;28;20674;-63
2022/04/15 05:53:06;;;;;;;110.53;42.17;;;7.80;99.90;;;;;;5041129;28;20642;-63
2022/04/15 05:55:35;;;;;;;117.77;42.57;;;7.80;99.90;;;;;;5044616;28;20236;-63
2022/04/15 05:58:03;;;;;;;114.37;42.57;;;7.80;99.90;;;;;;5041595;28;20737;-64
2022/04/15 06:00:33;;;;;;;107.87;40.23;;;7.90;99.90;;;;;;5045277;28;20235;-63
2022/04/15 06:03:01;;;;;;;92.77;38.20;;;8.00;99.90;;;;;;5044229;28;20697;-63
2022/04/15 06:05:30;;;;;;;79.93;36.50;;;8.10;99.90;;;;;;5044205;28;20674;-63
2022/04/15 06:07:59;;;;;;;72.50;35.80;;;8.00;99.90;;;;;;5043255;28;20833;-63
2022/04/15 06:10:28;;;;;;;77.03;35.30;;;8.10;99.90;;;;;;5044848;28;20280;-63
2022/04/15 06:13:04;;;;;;;72.13;34.23;;;8.20;99.90;;;;;;5046227;28;20216;-64
2022/04/15 06:15:36;;;;;;;72.77;33.53;;;8.30;99.90;;;;;;5044496;28;20652;-63
2022/04/15 06:18:04;;;;;;;76.30;32.30;;;8.50;99.90;;;;;;5040156;28;20200;-64
2022/04/15 06:20:33;;;;;;;75.50;34.27;;;8.60;99.90;;;;;;5040347;28;20710;-64
2022/04/15 06:23:01;;;;;;;60.07;32.70;;;8.70;99.90;;;;;;5039693;28;20215;-64
2022/04/15 06:25:30;;;;;;;60.90;32.07;;;8.80;99.90;;;;;;5044777;28;20196;-64
2022/04/15 06:27:58;;;;;;;48.90;29.97;;;8.90;99.90;;;;;;5047510;28;20254;-64
2022/04/15 06:30:27;;;;;;;46.43;30.13;;;9.10;99.90;;;;;;5042471;28;20292;-64
2022/04/15 06:32:57;;;;;;;44.17;29.20;;;9.30;99.90;;;;;;5040450;28;20294;-64
2022/04/15 06:35:25;;;;;;;37.23;27.53;;;9.50;99.90;;;;;;5046130;28;20211;-64
2022/04/15 06:37:54;;;;;;;33.10;24.57;;;9.70;99.90;;;;;;5039101;28;20210;-64
2022/04/15 06:40:22;;;;;;;30.13;21.83;;;9.80;99.90;;;;;;5046982;28;20662;-64
2022/04/15 06:42:51;;;;;;;27.97;21.50;;;10.20;99.90;;;;;;5044085;28;20332;-64
2022/04/15 06:45:27;;;;;;;27.77;21.60;;;10.60;99.90;;;;;;5044073;28;20267;-64
2022/04/15 06:47:57;;;;;;;27.63;21.37;;;11.10;99.90;;;;;;5041016;28;20296;-64
2022/04/15 06:50:26;;;;;;;24.17;19.33;;;11.60;99.90;;;;;;5040865;28;20197;-64
2022/04/15 06:52:54;;;;;;;27.20;19.60;;;12.00;99.90;;;;;;5044522;28;20710;-64
2022/04/15 06:55:22;;;;;;;21.37;17.90;;;12.50;99.90;;;;;;5034726;28;20743;-64
2022/04/15 06:57:51;;;;;;;26.90;20.70;;;12.90;99.90;;;;;;5035238;28;20203;-64
2022/04/15 07:00:19;;;;;;;24.90;20.40;;;13.30;99.90;;;;;;5040052;28;20239;-64
2022/04/15 07:02:49;;;;;;;26.67;19.83;;;13.60;99.90;;;;;;5043387;28;20197;-64
2022/04/15 07:05:20;;;;;;;27.30;20.50;;;13.80;99.90;;;;;;5039714;28;20212;-64
2022/04/15 07:07:48;;;;;;;30.20;21.87;;;14.00;99.90;;;;;;5039114;28;20288;-64
2022/04/15 07:10:17;;;;;;;29.80;20.90;;;14.20;99.90;;;;;;5040251;28;20779;-64
2022/04/15 07:12:46;;;;;;;27.37;22.13;;;14.40;99.90;;;;;;5040940;28;20228;-64
2022/04/15 07:15:14;;;;;;;34.00;22.60;;;14.50;99.90;;;;;;5039620;28;20193;-64
2022/04/15 07:17:43;;;;;;;29.33;21.90;;;14.80;99.90;;;;;;5043688;28;20204;-64
2022/04/15 07:20:12;;;;;;;31.57;22.90;;;15.10;99.90;;;;;;5043893;28;20192;-64
2022/04/15 07:22:42;;;;;;;34.67;22.40;;;15.10;99.90;;;;;;5043186;28;20197;-63
2022/04/15 07:25:11;;;;;;;32.63;22.10;;;15.20;99.90;;;;;;5045720;28;20511;-64
2022/04/15 07:27:40;;;;;;;32.83;22.63;;;15.40;99.90;;;;;;5045423;28;20442;-64
2022/04/15 07:30:10;;;;;;;36.17;24.33;;;15.90;99.90;;;;;;5046831;28;20192;-64
2022/04/15 07:32:38;;;;;;;37.73;24.43;;;16.10;99.90;;;;;;5043026;28;20235;-64
2022/04/15 07:35:08;;;;;;;38.53;22.57;;;16.50;99.90;;;;;;5041208;28;20276;-64
2022/04/15 07:37:36;;;;;;;41.40;24.33;;;16.80;99.90;;;;;;5042956;28;20205;-64
2022/04/15 07:40:07;;;;;;;31.63;22.80;;;17.10;99.90;;;;;;5044360;28;20275;-64
2022/04/15 07:42:36;;;;;;;33.10;23.73;;;17.40;99.90;;;;;;5041068;28;20196;-63
2022/04/15 07:45:06;;;;;;;37.20;24.20;;;17.50;99.90;;;;;;5045982;28;20196;-64
2022/04/15 07:47:35;;;;;;;35.30;23.47;;;17.80;99.90;;;;;;5043582;28;20267;-64
2022/04/15 07:50:21;;;;;;;36.83;23.47;;;17.90;99.90;;;;;;5044406;28;20196;-64
2022/04/15 07:52:50;;;;;;;37.83;23.13;;;18.00;99.90;;;;;;5044566;28;20231;-64
2022/04/15 07:55:20;;;;;;;32.63;22.73;;;18.10;99.90;;;;;;5040304;28;20250;-64
2022/04/15 07:57:48;;;;;;;34.53;22.67;;;18.30;99.90;;;;;;5043844;28;20203;-64
2022/04/15 08:00:17;;;;;;;36.13;23.87;;;18.50;99.90;;;;;;5046020;28;20233;-64
2022/04/15 08:02:46;;;;;;;35.50;23.77;;;18.60;99.90;;;;;;5041181;28;20200;-64
2022/04/15 08:05:15;;;;;;;37.47;22.60;;;18.50;99.90;;;;;;5039269;28;20197;-64
2022/04/15 08:07:43;;;;;;;33.63;22.00;;;18.90;99.90;;;;;;5044088;28;20218;-64
2022/04/15 08:10:12;;;;;;;30.63;20.90;;;19.30;99.90;;;;;;5038945;28;20195;-64
2022/04/15 08:12:41;;;;;;;32.30;21.70;;;19.40;99.90;;;;;;5049240;28;20208;-64
2022/04/15 08:15:10;;;;;;;30.23;20.67;;;19.10;99.90;;;;;;5047991;28;20254;-64
2022/04/15 08:17:39;;;;;;;31.47;18.90;;;19.30;99.90;;;;;;5049580;28;20217;-64
2022/04/15 08:20:08;;;;;;;26.73;18.57;;;19.20;99.90;;;;;;5051141;28;20675;-64
2022/04/15 08:22:37;;;;;;;24.37;17.03;;;19.20;99.90;;;;;;5048455;28;20194;-64
2022/04/15 08:25:06;;;;;;;28.87;17.77;;;19.40;99.90;;;;;;5048677;28;20194;-64
2022/04/15 08:27:34;;;;;;;23.77;16.63;;;19.70;99.90;;;;;;5048932;28;20205;-63
2022/04/15 08:30:05;;;;;;;20.10;14.47;;;20.30;99.90;;;;;;5051259;28;20298;-64
2022/04/15 08:32:34;;;;;;;22.10;14.47;;;20.80;99.90;;;;;;5050057;28;20245;-64
2022/04/15 08:35:11;;;;;;;19.23;13.57;;;20.70;99.90;;;;;;5050624;28;20228;-64
2022/04/15 08:37:40;;;;;;;18.83;13.57;;;21.30;99.90;;;;;;5049125;28;20387;-64
2022/04/15 08:40:09;;;;;;;20.50;14.03;;;21.90;99.90;;;;;;5051351;28;20193;-64
2022/04/15 08:42:39;;;;;;;20.47;12.83;;;22.00;99.90;;;;;;5051256;28;20201;-64
2022/04/15 08:45:09;;;;;;;16.40;12.37;;;22.40;99.90;;;;;;5049734;28;20193;-64
2022/04/15 08:47:38;;;;;;;16.85;12.70;;;22.90;99.90;;;;;;5050809;28;20214;-64
2022/04/15 08:50:10;;;;;;;21.85;13.02;;;22.80;99.90;;;;;;5051045;28;20186;-64
2022/04/15 08:52:39;;;;;;;18.15;12.43;;;23.00;99.90;;;;;;5044745;28;20545;-64
2022/04/15 08:55:08;;;;;;;15.50;11.27;;;23.30;99.90;;;;;;5048625;28;20219;-64
2022/04/15 08:57:36;;;;;;;17.25;10.32;;;23.40;99.90;;;;;;5048559;28;20197;-64
2022/04/15 09:00:05;;;;;;;18.08;12.20;;;23.70;99.90;;;;;;5039463;28;20671;-64
2022/04/15 09:02:37;;;;;;;16.65;10.85;;;23.80;99.90;;;;;;5046715;28;20448;-64
2022/04/15 09:05:12;;;;;;;11.75;10.00;;;23.80;99.90;;;;;;5045176;28;20195;-64
2022/04/15 09:07:41;;;;;;;13.55;10.10;;;24.10;99.90;;;;;;5043959;28;20231;-64
2022/04/15 09:10:10;;;;;;;12.85;9.48;;;24.40;99.90;;;;;;5050543;28;20202;-64
2022/04/15 09:12:40;;;;;;;16.65;11.55;;;24.60;99.90;;;;;;5051220;28;20249;-64
2022/04/15 09:15:15;;;;;;;14.18;9.68;;;24.70;99.90;;;;;;5050952;28;20219;-63
2022/04/15 09:17:49;;;;;;;12.02;9.60;;;24.70;99.90;;;;;;5049593;28;20206;-63
2022/04/15 09:20:18;;;;;;;15.20;10.63;;;24.80;99.90;;;;;;5049596;28;20198;-64
2022/04/15 09:22:48;;;;;;;14.10;9.82;;;24.50;99.90;;;;;;5050772;28;20188;-63
2022/04/15 09:25:16;;;;;;;10.88;9.13;;;24.50;99.90;;;;;;5048587;28;20199;-63
2022/04/15 09:27:45;;;;;;;10.73;8.27;;;24.30;99.90;;;;;;5048948;28;20223;-63
2022/04/15 09:30:13;;;;;;;11.13;8.27;;;24.50;99.90;;;;;;5050095;28;20252;-63
2022/04/15 09:32:42;;;;;;;13.93;9.65;;;24.40;99.90;;;;;;5050711;28;20246;-63
2022/04/15 09:35:17;;;;;;;14.07;9.65;;;24.60;99.90;;;;;;5048275;28;20208;-63
2022/04/15 09:37:45;;;;;;;12.10;8.82;;;25.00;99.90;;;;;;5048816;28;20298;-63
2022/04/15 09:40:15;;;;;;;12.40;8.13;;;24.90;99.80;;;;;;5050249;28;20217;-63
2022/04/15 09:42:47;;;;;;;13.05;8.30;;;24.40;99.90;;;;;;5042437;28;20201;-63
2022/04/15 09:45:17;;;;;;;13.55;9.25;;;24.10;99.90;;;;;;5049921;28;20219;-63
2022/04/15 09:47:52;;;;;;;13.45;8.63;;;23.70;99.90;;;;;;5040851;28;20296;-63
2022/04/15 09:50:27;;;;;;;13.20;9.05;;;24.10;99.90;;;;;;5048704;28;20201;-63
2022/04/15 09:53:06;;;;;;;11.43;7.47;;;24.70;99.90;;;;;;5045392;28;20525;-63
2022/04/15 09:55:36;;;;;;;8.15;7.35;;;25.00;99.90;;;;;;5037300;28;20310;-63
2022/04/15 09:58:09;;;;;;;10.23;7.95;;;25.50;99.00;;;;;;5049702;28;20265;-63
2022/04/15 10:00:39;;;;;;;9.07;7.60;;;24.20;99.60;;;;;;5048740;28;20206;-63
2022/04/15 10:03:19;;;;;;;10.73;7.80;;;24.50;99.70;;;;;;5038464;28;20290;-63
2022/04/15 10:05:50;;;;;;;11.90;7.80;;;24.80;99.80;;;;;;5047535;28;20256;-63
2022/04/15 10:08:21;;;;;;;8.25;7.40;;;24.40;99.20;;;;;;5049389;28;20193;-63
2022/04/15 10:10:51;;;;;;;9.20;7.97;;;24.80;99.90;;;;;;5048491;28;20210;-63
2022/04/15 10:13:22;;;;;;;7.03;6.25;;;25.20;98.70;;;;;;5046168;28;20289;-63
2022/04/15 10:15:52;;;;;;;8.70;7.20;;;25.70;98.70;;;;;;5042095;28;20250;-63
2022/04/15 10:18:22;;;;;;;10.60;8.32;;;24.80;97.60;;;;;;5048836;28;20189;-63
2022/04/15 10:20:52;;;;;;;10.03;8.33;;;24.40;98.60;;;;;;5047835;28;20729;-62
2022/04/15 10:23:23;;;;;;;10.53;8.40;;;23.70;99.60;;;;;;5048914;28;20280;-63
2022/04/15 10:25:52;;;;;;;8.50;6.97;;;24.10;99.90;;;;;;5049435;28;20267;-62
2022/04/15 10:28:38;;;;;;;8.00;6.90;;;23.80;99.90;;;;;;5047423;28;20201;-63
2022/04/15 10:31:08;;;;;;;9.87;8.23;;;23.50;99.90;;;;;;5048631;28;20612;-63
2022/04/15 10:33:39;;;;;;;8.77;7.87;;;23.60;99.90;;;;;;5047869;28;20233;-63
2022/04/15 10:36:17;;;;;;;7.10;5.73;;;23.50;99.90;;;;;;5048501;28;20702;-63
2022/04/15 10:39:18;;;;;;;11.67;7.93;;;23.10;99.90;;;;;;5047757;28;20249;-63
2022/04/15 10:42:17;;;;;;;8.37;7.50;;;23.00;99.90;;;;;;5048992;28;20215;-63
2022/04/15 10:44:46;;;;;;;7.82;6.55;;;23.70;99.90;;;;;;5057575;28;20618;-63
2022/04/15 10:47:29;;;;;;;9.30;8.23;;;24.50;98.90;;;;;;5039038;28;20280;-63
2022/04/15 10:50:03;;;;;;;9.40;7.13;;;24.50;98.90;;;;;;5037632;28;20617;-63
2022/04/15 10:52:34;;;;;;;8.90;7.65;;;24.10;98.60;;;;;;5040689;28;20225;-63
2022/04/15 10:55:05;;;;;;;9.33;8.33;;;23.40;99.30;;;;;;5029526;28;20787;-63
2022/04/15 10:57:35;;;;;;;11.43;8.87;;;22.50;99.90;;;;;;5042427;28;20602;-63
2022/04/15 11:02:58;;;;;;;9.63;7.27;;;22.60;99.90;;;;;;5042617;28;20204;-63
2022/04/15 11:05:36;;;;;;;7.20;5.90;;;23.20;99.90;;;;;;5044247;28;20181;-63
2022/04/15 11:08:13;;;;;;;8.03;6.40;;;23.40;99.20;;;;;;5042557;28;20243;-63
2022/04/15 11:10:59;;;;;;;9.17;8.23;;;24.00;99.80;;;;;;5041568;28;20373;-63
2022/04/15 11:13:33;;;;;;;8.18;6.07;;;24.30;99.90;;;;;;5043849;28;20488;-63
2022/04/15 11:16:11;;;;;;;6.68;5.35;;;24.50;98.30;;;;;;5045476;28;20250;-63
2022/04/15 11:18:50;;;;;;;8.98;6.00;;;24.30;99.40;;;;;;5045691;28;20181;-63
2022/04/15 11:21:27;;;;;;;8.97;6.40;;;24.10;98.70;;;;;;5041517;28;20276;-63
2022/04/15 11:23:58;;;;;;;9.37;7.47;;;23.90;99.20;;;;;;5042184;28;20679;-62
2022/04/15 11:26:28;;;;;;;11.20;8.37;;;24.30;99.80;;;;;;5046007;28;20219;-63
2022/04/15 11:28:58;;;;;;;13.97;9.43;;;24.20;99.90;;;;;;5043124;28;20208;-63
2022/04/15 11:31:27;;;;;;;12.70;9.27;;;23.90;99.70;;;;;;5045454;28;20834;-63
2022/04/15 11:33:57;;;;;;;9.50;8.60;;;24.20;99.90;;;;;;5039088;28;20607;-62
2022/04/15 11:36:28;;;;;;;11.37;9.30;;;23.70;99.90;;;;;;5035466;28;20298;-62
2022/04/15 11:39:01;;;;;;;9.33;8.33;;;23.70;99.90;;;;;;5040935;28;20670;-62
2022/04/15 11:41:30;;;;;;;10.13;8.50;;;23.80;99.60;;;;;;5042992;28;20204;-62
2022/04/15 11:44:00;;;;;;;13.23;9.53;;;23.70;99.90;;;;;;5042690;28;20201;-63
2022/04/15 11:46:39;;;;;;;12.93;9.70;;;23.90;99.90;;;;;;5044890;28;20238;-63
2022/04/15 11:49:16;;;;;;;12.30;9.60;;;23.30;99.90;;;;;;5037417;28;20201;-63
2022/04/15 11:51:46;;;;;;;10.87;9.83;;;23.10;99.90;;;;;;5042551;28;20210;-62
2022/04/15 11:54:16;;;;;;;14.50;10.27;;;22.60;99.90;;;;;;5043113;28;20684;-62
2022/04/15 11:56:45;;;;;;;12.87;10.10;;;22.40;99.90;;;;;;5037924;28;20223;-62
2022/04/15 11:59:14;;;;;;;10.17;9.00;;;22.30;99.90;;;;;;5038721;28;20333;-62
2022/04/15 12:01:42;;;;;;;13.17;9.47;;;22.00;99.90;;;;;;5043294;28;20664;-62
2022/04/15 12:04:11;;;;;;;13.40;11.07;;;21.70;99.90;;;;;;5043190;28;20199;-62
2022/04/15 12:06:41;;;;;;;15.33;12.23;;;22.30;99.90;;;;;;5044362;28;20191;-62
2022/04/15 12:09:14;;;;;;;14.00;11.47;;;22.10;99.90;;;;;;5044560;28;20210;-62
2022/04/15 12:12:05;;;;;;;13.43;10.53;;;21.50;99.90;;;;;;5042263;28;20780;-62
2022/04/15 12:14:38;;;;;;;14.27;10.13;;;21.10;99.90;;;;;;5039625;28;20197;-63
2022/04/15 12:17:08;;;;;;;11.70;9.87;;;20.90;99.90;;;;;;5046541;28;20220;-62
2022/04/15 12:19:37;;;;;;;12.40;10.73;;;20.80;99.90;;;;;;5043909;28;20209;-62
2022/04/15 12:22:06;;;;;;;11.43;10.10;;;20.20;99.90;;;;;;5045240;28;20201;-62
2022/04/15 12:24:34;;;;;;;10.87;9.13;;;20.30;99.90;;;;;;5044165;28;20232;-62
2022/04/15 12:27:05;;;;;;;9.60;8.40;;;20.30;99.90;;;;;;5044751;28;20201;-63
2022/04/15 12:29:48;;;;;;;15.13;9.23;;;20.60;99.90;;;;;;5039827;28;20213;-62
2022/04/15 12:32:23;;;;;;;10.63;9.10;;;20.30;99.90;;;;;;5041135;28;20224;-62
2022/04/15 12:35:10;;;;;;;12.70;8.80;;;20.30;99.90;;;;;;5048792;28;20251;-62
2022/04/15 12:37:44;;;;;;;14.77;9.17;;;20.50;99.90;;;;;;5044724;28;20224;-62
2022/04/15 12:40:30;;;;;;;12.63;8.43;;;20.60;99.90;;;;;;5049570;28;20185;-63
2022/04/15 12:43:12;;;;;;;11.07;8.10;;;21.00;99.90;;;;;;5043772;28;20717;-63
2022/04/15 12:45:50;;;;;;;11.47;8.70;;;21.50;99.90;;;;;;5045347;28;20205;-62
2022/04/15 12:48:19;;;;;;;12.10;8.33;;;21.20;99.90;;;;;;5045152;28;20235;-63
2022/04/15 12:50:53;;;;;;;11.87;8.00;;;20.70;99.90;;;;;;5046664;28;20280;-63
2022/04/15 12:53:23;;;;;;;11.20;7.47;;;20.50;99.90;;;;;;5051074;28;20229;-62